sensor_id;sensor_type;location;lat;lon;timestamp;pressure;altitude;pressure_sealevel;temperature;humidity
23176;BME280;19910;42.652;23.332;2023-04-03T00:00:00;94020.63;;;6.93;80.91
23176;BME280;19910;42.652;23.332;2023-04-03T00:02:28;94033.13;;;6.89;80.74
23176;BME280;19910;42.652;23.332;2023-04-03T00:04:55;94028.38;;;6.86;80.49
23176;BME280;19910;42.652;23.332;2023-04-03T00:07:23;94025.06;;;6.81;80.62
23176;BME280;19910;42.652;23.332;2023-04-03T00:09:50;94023.94;;;6.73;81.60
23176;BME280;19910;42.652;23.332;2023-04-03T00:12:16;94014.78;;;6.65;81.60
23176;BME280;19910;42.652;23.332;2023-04-03T00:14:43;94022.56;;;6.67;82.22
23176;BME280;19910;42.652;23.332;2023-04-03T00:17:10;94017.78;;;6.47;82.36
23176;BME280;19910;42.652;23.332;2023-04-03T00:19:36;94013.84;;;6.44;82.49
23176;BME280;19910;42.652;23.332;2023-04-03T00:22:03;94019.84;;;6.50;83.54
23176;BME280;19910;42.652;23.332;2023-04-03T00:24:31;94004.34;;;6.47;83.45
23176;BME280;19910;42.652;23.332;2023-04-03T00:26:58;94005.44;;;6.46;83.85
23176;BME280;19910;42.652;23.332;2023-04-03T00:29:25;94019.53;;;6.51;83.83
23176;BME280;19910;42.652;23.332;2023-04-03T00:31:51;94012.75;;;6.54;83.34
23176;BME280;19910;42.652;23.332;2023-04-03T00:34:18;94009.25;;;6.45;83.12
23176;BME280;19910;42.652;23.332;2023-04-03T00:36:45;94013.34;;;6.33;83.74
23176;BME280;19910;42.652;23.332;2023-04-03T00:39:11;94006.88;;;6.43;82.16
23176;BME280;19910;42.652;23.332;2023-04-03T00:41:40;94018.44;;;6.35;83.29
23176;BME280;19910;42.652;23.332;2023-04-03T00:47:28;94019.19;;;6.18;84.56
23176;BME280;19910;42.652;23.332;2023-04-03T00:49:57;94010.81;;;6.11;84.79
23176;BME280;19910;42.652;23.332;2023-04-03T00:52:27;94021.56;;;6.11;85.41
23176;BME280;19910;42.652;23.332;2023-04-03T00:54:57;94021.25;;;6.21;85.74
23176;BME280;19910;42.652;23.332;2023-04-03T00:57:27;94026.19;;;6.28;85.77
23176;BME280;19910;42.652;23.332;2023-04-03T00:59:57;94031.41;;;6.24;85.24
23176;BME280;19910;42.652;23.332;2023-04-03T01:02:26;94029.81;;;6.23;85.05
23176;BME280;19910;42.652;23.332;2023-04-03T01:04:53;94031.38;;;6.16;84.86
23176;BME280;19910;42.652;23.332;2023-04-03T01:07:21;94027.13;;;6.15;85.15
23176;BME280;19910;42.652;23.332;2023-04-03T01:09:51;94031.53;;;6.11;85.21
23176;BME280;19910;42.652;23.332;2023-04-03T01:12:21;94030.06;;;5.96;85.21
23176;BME280;19910;42.652;23.332;2023-04-03T01:14:52;94029.28;;;5.95;84.84
23176;BME280;19910;42.652;23.332;2023-04-03T01:17:28;94033.88;;;5.95;84.71
23176;BME280;19910;42.652;23.332;2023-04-03T01:20:18;94030.69;;;5.93;85.09
23176;BME280;19910;42.652;23.332;2023-04-03T01:22:55;94026.91;;;5.94;85.74
23176;BME280;19910;42.652;23.332;2023-04-03T01:25:23;94031.31;;;5.90;85.40
23176;BME280;19910;42.652;23.332;2023-04-03T01:27:50;94024.34;;;5.89;84.98
23176;BME280;19910;42.652;23.332;2023-04-03T01:30:20;94031.31;;;5.90;85.13
23176;BME280;19910;42.652;23.332;2023-04-03T01:32:49;94028.50;;;5.95;85.12
23176;BME280;19910;42.652;23.332;2023-04-03T01:35:15;94023.13;;;5.95;85.12
23176;BME280;19910;42.652;23.332;2023-04-03T01:37:42;94025.31;;;5.93;85.50
23176;BME280;19910;42.652;23.332;2023-04-03T01:40:09;94024.69;;;5.96;85.73
23176;BME280;19910;42.652;23.332;2023-04-03T01:42:36;94020.75;;;5.93;85.63
23176;BME280;19910;42.652;23.332;2023-04-03T01:45:03;94024.97;;;5.86;85.86
23176;BME280;19910;42.652;23.332;2023-04-03T01:47:30;94018.00;;;5.85;85.85
23176;BME280;19910;42.652;23.332;2023-04-03T01:49:58;94024.53;;;5.92;85.69
23176;BME280;19910;42.652;23.332;2023-04-03T01:52:25;94030.69;;;5.93;85.73
23176;BME280;19910;42.652;23.332;2023-04-03T01:54:52;94033.69;;;5.91;85.97
23176;BME280;19910;42.652;23.332;2023-04-03T01:57:18;94039.25;;;5.95;86.20
23176;BME280;19910;42.652;23.332;2023-04-03T01:59:45;94027.53;;;5.91;85.78
23176;BME280;19910;42.652;23.332;2023-04-03T02:02:12;94028.75;;;5.85;85.74
23176;BME280;19910;42.652;23.332;2023-04-03T02:04:40;94027.78;;;5.81;85.90
23176;BME280;19910;42.652;23.332;2023-04-03T02:07:08;94035.38;;;5.79;85.05
23176;BME280;19910;42.652;23.332;2023-04-03T02:09:35;94035.03;;;5.71;85.86
23176;BME280;19910;42.652;23.332;2023-04-03T02:12:02;94027.47;;;5.74;85.96
23176;BME280;19910;42.652;23.332;2023-04-03T02:14:29;94034.25;;;5.71;85.99
23176;BME280;19910;42.652;23.332;2023-04-03T02:16:55;94036.63;;;5.72;86.07
23176;BME280;19910;42.652;23.332;2023-04-03T02:19:22;94041.03;;;5.68;86.51
23176;BME280;19910;42.652;23.332;2023-04-03T02:21:49;94036.56;;;5.55;87.15
23176;BME280;19910;42.652;23.332;2023-04-03T02:24:17;94034.00;;;5.50;87.73
23176;BME280;19910;42.652;23.332;2023-04-03T02:26:44;94021.66;;;5.49;87.65
23176;BME280;19910;42.652;23.332;2023-04-03T02:29:10;94018.84;;;5.46;87.87
23176;BME280;19910;42.652;23.332;2023-04-03T02:31:37;94015.66;;;5.44;87.39
23176;BME280;19910;42.652;23.332;2023-04-03T02:34:04;94021.81;;;5.44;87.67
23176;BME280;19910;42.652;23.332;2023-04-03T02:36:31;94020.56;;;5.50;87.18
23176;BME280;19910;42.652;23.332;2023-04-03T02:38:58;94012.00;;;5.40;87.60
23176;BME280;19910;42.652;23.332;2023-04-03T02:41:26;94017.19;;;5.36;87.98
23176;BME280;19910;42.652;23.332;2023-04-03T02:43:58;94019.28;;;5.48;87.45
23176;BME280;19910;42.652;23.332;2023-04-03T02:46:25;94016.16;;;5.46;86.84
23176;BME280;19910;42.652;23.332;2023-04-03T02:48:52;94016.94;;;5.46;87.10
23176;BME280;19910;42.652;23.332;2023-04-03T02:51:19;94010.00;;;5.45;87.04
23176;BME280;19910;42.652;23.332;2023-04-03T02:53:46;94001.44;;;5.43;87.70
23176;BME280;19910;42.652;23.332;2023-04-03T02:56:12;94007.25;;;5.36;88.09
23176;BME280;19910;42.652;23.332;2023-04-03T02:58:40;93998.09;;;5.38;88.11
23176;BME280;19910;42.652;23.332;2023-04-03T03:01:07;93999.88;;;5.42;87.70
23176;BME280;19910;42.652;23.332;2023-04-03T03:03:34;93990.75;;;5.60;86.38
23176;BME280;19910;42.652;23.332;2023-04-03T03:06:02;93994.91;;;5.35;86.96
23176;BME280;19910;42.652;23.332;2023-04-03T03:08:29;93995.38;;;5.29;87.57
23176;BME280;19910;42.652;23.332;2023-04-03T03:10:56;93986.34;;;5.16;88.43
23176;BME280;19910;42.652;23.332;2023-04-03T03:13:23;93982.66;;;5.12;89.24
23176;BME280;19910;42.652;23.332;2023-04-03T03:15:51;93989.66;;;5.22;89.18
23176;BME280;19910;42.652;23.332;2023-04-03T03:18:18;93996.88;;;5.13;89.71
23176;BME280;19910;42.652;23.332;2023-04-03T03:20:45;93991.41;;;5.18;89.87
23176;BME280;19910;42.652;23.332;2023-04-03T03:23:12;93995.03;;;5.22;89.45
23176;BME280;19910;42.652;23.332;2023-04-03T03:25:38;93993.94;;;5.23;89.41
23176;BME280;19910;42.652;23.332;2023-04-03T03:28:06;93993.81;;;5.28;88.99
23176;BME280;19910;42.652;23.332;2023-04-03T03:30:33;93994.69;;;5.15;88.80
23176;BME280;19910;42.652;23.332;2023-04-03T03:33:01;93988.50;;;5.06;89.60
23176;BME280;19910;42.652;23.332;2023-04-03T03:35:28;93982.47;;;5.00;90.26
23176;BME280;19910;42.652;23.332;2023-04-03T03:37:55;93997.00;;;5.08;89.80
23176;BME280;19910;42.652;23.332;2023-04-03T03:40:22;94004.81;;;5.18;89.40
23176;BME280;19910;42.652;23.332;2023-04-03T03:42:49;93999.44;;;5.18;90.06
23176;BME280;19910;42.652;23.332;2023-04-03T03:45:15;93996.66;;;5.00;89.17
23176;BME280;19910;42.652;23.332;2023-04-03T03:47:42;93989.22;;;4.97;89.63
23176;BME280;19910;42.652;23.332;2023-04-03T03:50:11;93989.84;;;4.94;89.30
23176;BME280;19910;42.652;23.332;2023-04-03T03:52:38;93996.19;;;4.98;89.72
23176;BME280;19910;42.652;23.332;2023-04-03T03:55:05;94003.47;;;5.07;89.65
23176;BME280;19910;42.652;23.332;2023-04-03T03:57:32;94001.66;;;5.16;89.58
23176;BME280;19910;42.652;23.332;2023-04-03T03:59:59;93998.97;;;5.16;88.94
23176;BME280;19910;42.652;23.332;2023-04-03T04:02:26;94003.56;;;5.24;88.14
23176;BME280;19910;42.652;23.332;2023-04-03T04:04:53;94007.34;;;5.23;88.51
23176;BME280;19910;42.652;23.332;2023-04-03T04:07:21;93998.81;;;5.21;88.46
23176;BME280;19910;42.652;23.332;2023-04-03T04:09:48;93999.66;;;5.30;88.25
23176;BME280;19910;42.652;23.332;2023-04-03T04:12:14;93993.94;;;5.23;87.98
23176;BME280;19910;42.652;23.332;2023-04-03T04:14:41;94002.34;;;5.30;88.45
23176;BME280;19910;42.652;23.332;2023-04-03T04:17:11;94003.66;;;5.41;88.33
23176;BME280;19910;42.652;23.332;2023-04-03T04:19:38;94024.03;;;5.42;87.85
23176;BME280;19910;42.652;23.332;2023-04-03T04:22:05;94011.56;;;5.46;86.88
23176;BME280;19910;42.652;23.332;2023-04-03T04:24:33;94016.59;;;5.48;87.25
23176;BME280;19910;42.652;23.332;2023-04-03T04:27:00;94011.63;;;5.63;86.70
23176;BME280;19910;42.652;23.332;2023-04-03T04:29:27;94008.97;;;5.72;86.30
23176;BME280;19910;42.652;23.332;2023-04-03T04:31:53;93999.47;;;5.75;86.18
23176;BME280;19910;42.652;23.332;2023-04-03T04:34:20;94012.19;;;5.91;85.40
23176;BME280;19910;42.652;23.332;2023-04-03T04:36:47;94015.22;;;6.07;83.88
23176;BME280;19910;42.652;23.332;2023-04-03T04:39:13;94028.06;;;6.10;83.25
23176;BME280;19910;42.652;23.332;2023-04-03T04:41:42;94015.88;;;6.21;83.46
23176;BME280;19910;42.652;23.332;2023-04-03T04:44:08;94011.31;;;6.13;83.40
23176;BME280;19910;42.652;23.332;2023-04-03T04:46:35;94020.16;;;6.22;83.48
23176;BME280;19910;42.652;23.332;2023-04-03T04:49:02;94033.47;;;6.36;83.25
23176;BME280;19910;42.652;23.332;2023-04-03T04:51:29;94031.88;;;6.35;83.54
23176;BME280;19910;42.652;23.332;2023-04-03T04:53:55;94035.22;;;6.40;83.92
23176;BME280;19910;42.652;23.332;2023-04-03T04:56:22;94029.66;;;6.46;83.15
23176;BME280;19910;42.652;23.332;2023-04-03T04:58:50;94025.38;;;6.62;83.33
23176;BME280;19910;42.652;23.332;2023-04-03T05:01:17;94034.88;;;6.85;82.50
23176;BME280;19910;42.652;23.332;2023-04-03T05:03:44;94033.25;;;7.01;81.60
23176;BME280;19910;42.652;23.332;2023-04-03T05:06:11;94038.47;;;7.15;80.91
23176;BME280;19910;42.652;23.332;2023-04-03T05:08:38;94036.41;;;7.21;80.71
23176;BME280;19910;42.652;23.332;2023-04-03T05:11:04;94049.59;;;6.96;81.31
23176;BME280;19910;42.652;23.332;2023-04-03T05:13:31;94057.06;;;6.82;82.05
23176;BME280;19910;42.652;23.332;2023-04-03T05:15:59;94056.09;;;6.95;81.37
23176;BME280;19910;42.652;23.332;2023-04-03T05:18:26;94056.41;;;6.85;81.54
23176;BME280;19910;42.652;23.332;2023-04-03T05:20:53;94062.75;;;6.89;81.75
23176;BME280;19910;42.652;23.332;2023-04-03T05:23:20;94051.13;;;7.14;80.38
23176;BME280;19910;42.652;23.332;2023-04-03T05:25:47;94051.88;;;7.41;80.18
23176;BME280;19910;42.652;23.332;2023-04-03T05:28:14;94058.22;;;7.45;79.01
23176;BME280;19910;42.652;23.332;2023-04-03T05:30:41;94051.75;;;7.75;78.54
23176;BME280;19910;42.652;23.332;2023-04-03T05:33:09;94068.06;;;8.17;78.78
23176;BME280;19910;42.652;23.332;2023-04-03T05:35:36;94051.81;;;8.55;77.80
23176;BME280;19910;42.652;23.332;2023-04-03T05:38:04;94044.16;;;8.78;76.47
23176;BME280;19910;42.652;23.332;2023-04-03T05:40:31;94040.63;;;8.86;76.73
23176;BME280;19910;42.652;23.332;2023-04-03T05:42:58;94039.59;;;9.11;76.72
23176;BME280;19910;42.652;23.332;2023-04-03T05:45:25;94030.63;;;9.32;76.36
23176;BME280;19910;42.652;23.332;2023-04-03T05:47:51;94036.78;;;9.53;74.42
23176;BME280;19910;42.652;23.332;2023-04-03T05:50:20;94034.88;;;9.66;73.26
23176;BME280;19910;42.652;23.332;2023-04-03T05:52:49;94037.59;;;9.78;73.03
23176;BME280;19910;42.652;23.332;2023-04-03T05:55:16;94029.94;;;9.80;72.93
23176;BME280;19910;42.652;23.332;2023-04-03T05:57:43;94026.66;;;9.86;71.99
23176;BME280;19910;42.652;23.332;2023-04-03T06:00:13;94029.81;;;9.76;71.36
23176;BME280;19910;42.652;23.332;2023-04-03T06:02:41;94024.00;;;10.11;70.16
23176;BME280;19910;42.652;23.332;2023-04-03T06:05:08;94027.56;;;10.15;70.50
23176;BME280;19910;42.652;23.332;2023-04-03T06:07:38;94020.91;;;10.12;68.97
23176;BME280;19910;42.652;23.332;2023-04-03T06:10:07;94018.13;;;10.21;68.62
23176;BME280;19910;42.652;23.332;2023-04-03T06:12:34;94006.72;;;10.52;68.15
23176;BME280;19910;42.652;23.332;2023-04-03T06:15:01;94000.91;;;10.53;67.29
23176;BME280;19910;42.652;23.332;2023-04-03T06:17:27;94009.31;;;10.12;67.97
23176;BME280;19910;42.652;23.332;2023-04-03T06:19:55;94001.63;;;10.14;68.35
23176;BME280;19910;42.652;23.332;2023-04-03T06:22:23;93997.63;;;10.20;68.05
23176;BME280;19910;42.652;23.332;2023-04-03T06:24:53;94010.22;;;10.04;68.93
23176;BME280;19910;42.652;23.332;2023-04-03T06:27:20;94012.59;;;9.93;68.83
23176;BME280;19910;42.652;23.332;2023-04-03T06:29:46;94016.28;;;10.49;67.64
23176;BME280;19910;42.652;23.332;2023-04-03T06:32:14;94016.31;;;10.37;66.69
23176;BME280;19910;42.652;23.332;2023-04-03T06:34:41;94021.63;;;10.33;67.38
23176;BME280;19910;42.652;23.332;2023-04-03T06:37:10;94031.66;;;10.33;67.10
23176;BME280;19910;42.652;23.332;2023-04-03T06:39:39;94039.34;;;10.19;67.56
23176;BME280;19910;42.652;23.332;2023-04-03T06:42:07;94034.53;;;10.52;67.14
23176;BME280;19910;42.652;23.332;2023-04-03T06:44:34;94021.88;;;10.68;66.13
23176;BME280;19910;42.652;23.332;2023-04-03T06:47:01;94032.59;;;10.25;67.33
23176;BME280;19910;42.652;23.332;2023-04-03T06:49:28;94023.06;;;10.07;68.79
23176;BME280;19910;42.652;23.332;2023-04-03T06:51:55;94026.44;;;10.40;67.23
23176;BME280;19910;42.652;23.332;2023-04-03T06:54:22;94031.78;;;10.37;66.81
23176;BME280;19910;42.652;23.332;2023-04-03T06:56:49;94024.28;;;10.98;66.06
23176;BME280;19910;42.652;23.332;2023-04-03T06:59:17;94029.72;;;11.42;64.58
23176;BME280;19910;42.652;23.332;2023-04-03T07:01:46;94031.88;;;11.20;64.33
23176;BME280;19910;42.652;23.332;2023-04-03T07:04:14;94023.16;;;11.43;63.82
23176;BME280;19910;42.652;23.332;2023-04-03T07:06:41;94025.50;;;11.72;63.85
23176;BME280;19910;42.652;23.332;2023-04-03T07:09:08;94018.38;;;11.67;63.05
23176;BME280;19910;42.652;23.332;2023-04-03T07:11:36;94006.59;;;11.91;62.45
23176;BME280;19910;42.652;23.332;2023-04-03T07:14:03;94014.00;;;11.63;63.38
23176;BME280;19910;42.652;23.332;2023-04-03T07:16:32;94000.56;;;11.82;62.84
23176;BME280;19910;42.652;23.332;2023-04-03T07:18:59;94006.25;;;12.08;62.55
23176;BME280;19910;42.652;23.332;2023-04-03T07:21:25;94010.97;;;11.80;63.04
23176;BME280;19910;42.652;23.332;2023-04-03T07:23:53;94001.16;;;12.23;61.76
23176;BME280;19910;42.652;23.332;2023-04-03T07:26:20;93990.28;;;12.23;62.17
23176;BME280;19910;42.652;23.332;2023-04-03T07:28:47;93997.03;;;12.83;61.38
23176;BME280;19910;42.652;23.332;2023-04-03T07:31:15;93995.41;;;13.17;59.86
23176;BME280;19910;42.652;23.332;2023-04-03T07:33:45;93982.06;;;13.50;58.25
23176;BME280;19910;42.652;23.332;2023-04-03T07:36:17;93983.38;;;13.37;58.23
23176;BME280;19910;42.652;23.332;2023-04-03T07:38:44;93981.38;;;12.57;60.14
23176;BME280;19910;42.652;23.332;2023-04-03T07:41:14;93974.81;;;12.97;59.73
23176;BME280;19910;42.652;23.332;2023-04-03T07:43:42;93973.84;;;12.89;58.84
23176;BME280;19910;42.652;23.332;2023-04-03T07:46:09;93973.34;;;11.94;61.35
23176;BME280;19910;42.652;23.332;2023-04-03T07:48:36;93972.75;;;11.85;61.63
23176;BME280;19910;42.652;23.332;2023-04-03T07:51:04;93976.31;;;11.89;61.61
23176;BME280;19910;42.652;23.332;2023-04-03T07:53:32;93973.47;;;12.71;59.92
23176;BME280;19910;42.652;23.332;2023-04-03T07:55:59;93977.91;;;12.60;59.67
23176;BME280;19910;42.652;23.332;2023-04-03T07:58:29;93970.38;;;12.69;59.51
23176;BME280;19910;42.652;23.332;2023-04-03T08:00:56;93976.13;;;12.14;60.15
23176;BME280;19910;42.652;23.332;2023-04-03T08:03:22;93964.72;;;12.24;61.36
23176;BME280;19910;42.652;23.332;2023-04-03T08:05:50;93963.06;;;12.54;60.01
23176;BME280;19910;42.652;23.332;2023-04-03T08:08:20;93973.13;;;12.54;59.75
23176;BME280;19910;42.652;23.332;2023-04-03T08:10:48;93966.19;;;12.56;59.27
23176;BME280;19910;42.652;23.332;2023-04-03T08:13:16;93958.00;;;12.37;60.26
23176;BME280;19910;42.652;23.332;2023-04-03T08:15:43;93961.72;;;12.29;60.28
23176;BME280;19910;42.652;23.332;2023-04-03T08:18:10;93962.69;;;12.21;60.33
23176;BME280;19910;42.652;23.332;2023-04-03T08:20:37;93967.63;;;11.68;62.11
23176;BME280;19910;42.652;23.332;2023-04-03T08:23:05;93966.31;;;11.62;62.57
23176;BME280;19910;42.652;23.332;2023-04-03T08:25:37;93963.94;;;11.29;63.67
23176;BME280;19910;42.652;23.332;2023-04-03T08:28:05;93957.09;;;11.35;63.62
23176;BME280;19910;42.652;23.332;2023-04-03T08:30:32;93965.25;;;11.51;63.92
23176;BME280;19910;42.652;23.332;2023-04-03T08:33:00;93963.34;;;11.67;63.45
23176;BME280;19910;42.652;23.332;2023-04-03T08:35:27;93955.16;;;12.30;61.26
23176;BME280;19910;42.652;23.332;2023-04-03T08:37:54;93938.38;;;13.01;59.26
23176;BME280;19910;42.652;23.332;2023-04-03T08:40:21;93940.63;;;13.38;58.58
23176;BME280;19910;42.652;23.332;2023-04-03T08:43:00;93935.97;;;13.84;56.90
23176;BME280;19910;42.652;23.332;2023-04-03T08:45:37;93932.16;;;13.20;57.93
23176;BME280;19910;42.652;23.332;2023-04-03T08:48:13;93933.56;;;13.14;58.27
23176;BME280;19910;42.652;23.332;2023-04-03T08:50:43;93939.63;;;12.85;59.07
23176;BME280;19910;42.652;23.332;2023-04-03T08:53:14;93938.88;;;13.07;58.75
23176;BME280;19910;42.652;23.332;2023-04-03T08:55:43;93928.38;;;13.47;57.43
23176;BME280;19910;42.652;23.332;2023-04-03T08:58:15;93929.09;;;13.44;57.33
23176;BME280;19910;42.652;23.332;2023-04-03T09:00:45;93923.28;;;13.23;57.90
23176;BME280;19910;42.652;23.332;2023-04-03T09:03:14;93916.47;;;14.08;56.27
23176;BME280;19910;42.652;23.332;2023-04-03T09:05:45;93922.50;;;13.45;57.45
23176;BME280;19910;42.652;23.332;2023-04-03T09:08:21;93915.69;;;14.08;56.19
23176;BME280;19910;42.652;23.332;2023-04-03T09:10:49;93899.91;;;14.77;55.54
23176;BME280;19910;42.652;23.332;2023-04-03T09:13:26;93898.38;;;14.46;54.49
23176;BME280;19910;42.652;23.332;2023-04-03T09:15:56;93906.00;;;13.84;56.16
23176;BME280;19910;42.652;23.332;2023-04-03T09:18:26;93898.53;;;13.55;57.16
23176;BME280;19910;42.652;23.332;2023-04-03T09:20:58;93905.25;;;13.61;56.90
23176;BME280;19910;42.652;23.332;2023-04-03T09:23:30;93896.66;;;13.59;57.04
23176;BME280;19910;42.652;23.332;2023-04-03T09:26:02;93895.81;;;13.55;56.21
23176;BME280;19910;42.652;23.332;2023-04-03T09:28:37;93893.75;;;13.71;55.20
23176;BME280;19910;42.652;23.332;2023-04-03T09:31:16;93889.56;;;13.50;56.11
23176;BME280;19910;42.652;23.332;2023-04-03T09:33:45;93884.69;;;13.40;55.74
23176;BME280;19910;42.652;23.332;2023-04-03T09:36:12;93883.59;;;13.68;55.33
23176;BME280;19910;42.652;23.332;2023-04-03T09:38:39;93878.06;;;14.13;54.74
23176;BME280;19910;42.652;23.332;2023-04-03T09:41:15;93881.56;;;14.14;52.83
23176;BME280;19910;42.652;23.332;2023-04-03T09:43:54;93869.31;;;14.57;51.75
23176;BME280;19910;42.652;23.332;2023-04-03T09:46:28;93869.88;;;14.40;51.30
23176;BME280;19910;42.652;23.332;2023-04-03T09:48:58;93876.22;;;13.95;51.91
23176;BME280;19910;42.652;23.332;2023-04-03T09:51:26;93874.81;;;13.78;52.63
23176;BME280;19910;42.652;23.332;2023-04-03T09:53:54;93865.28;;;13.91;51.96
23176;BME280;19910;42.652;23.332;2023-04-03T09:56:24;93857.31;;;14.35;51.52
23176;BME280;19910;42.652;23.332;2023-04-03T09:59:07;93850.63;;;13.99;52.93
23176;BME280;19910;42.652;23.332;2023-04-03T10:01:35;93854.44;;;13.95;52.87
23176;BME280;19910;42.652;23.332;2023-04-03T10:04:07;93867.25;;;13.68;52.69
23176;BME280;19910;42.652;23.332;2023-04-03T10:06:36;93860.53;;;13.84;51.89
23176;BME280;19910;42.652;23.332;2023-04-03T10:09:17;93863.50;;;13.76;51.86
23176;BME280;19910;42.652;23.332;2023-04-03T10:11:59;93866.09;;;13.42;53.86
23176;BME280;19910;42.652;23.332;2023-04-03T10:14:28;93864.78;;;13.13;54.82
23176;BME280;19910;42.652;23.332;2023-04-03T10:17:02;93860.41;;;12.86;55.67
23176;BME280;19910;42.652;23.332;2023-04-03T10:19:36;93866.00;;;12.74;56.38
23176;BME280;19910;42.652;23.332;2023-04-03T10:22:12;93853.78;;;12.45;57.33
23176;BME280;19910;42.652;23.332;2023-04-03T10:24:50;93841.22;;;12.56;56.97
23176;BME280;19910;42.652;23.332;2023-04-03T10:27:24;93854.56;;;12.84;56.63
23176;BME280;19910;42.652;23.332;2023-04-03T10:30:00;93846.34;;;12.80;56.37
23176;BME280;19910;42.652;23.332;2023-04-03T10:32:51;93845.63;;;12.84;56.41
23176;BME280;19910;42.652;23.332;2023-04-03T10:35:30;93840.44;;;12.98;55.68
23176;BME280;19910;42.652;23.332;2023-04-03T10:38:05;93836.34;;;12.85;56.59
23176;BME280;19910;42.652;23.332;2023-04-03T10:40:42;93841.50;;;12.70;56.26
23176;BME280;19910;42.652;23.332;2023-04-03T10:43:19;93835.06;;;12.59;56.67
23176;BME280;19910;42.652;23.332;2023-04-03T10:45:56;93823.63;;;12.69;56.61
23176;BME280;19910;42.652;23.332;2023-04-03T10:48:37;93830.47;;;12.82;56.98
23176;BME280;19910;42.652;23.332;2023-04-03T10:51:16;93826.09;;;12.78;55.87
23176;BME280;19910;42.652;23.332;2023-04-03T10:53:51;93831.34;;;12.67;57.04
23176;BME280;19910;42.652;23.332;2023-04-03T10:56:28;93825.13;;;12.48;57.60
23176;BME280;19910;42.652;23.332;2023-04-03T10:59:00;93823.47;;;12.62;58.10
23176;BME280;19910;42.652;23.332;2023-04-03T11:01:33;93831.63;;;12.81;59.07
23176;BME280;19910;42.652;23.332;2023-04-03T11:04:04;93829.09;;;12.73;60.28
23176;BME280;19910;42.652;23.332;2023-04-03T11:06:36;93837.22;;;12.31;63.48
23176;BME280;19910;42.652;23.332;2023-04-03T11:09:10;93834.22;;;11.97;64.84
23176;BME280;19910;42.652;23.332;2023-04-03T11:11:39;93840.13;;;11.68;64.27
23176;BME280;19910;42.652;23.332;2023-04-03T11:14:10;93849.06;;;11.53;66.69
23176;BME280;19910;42.652;23.332;2023-04-03T11:16:45;93830.50;;;11.20;67.66
23176;BME280;19910;42.652;23.332;2023-04-03T11:19:18;93843.31;;;11.07;70.31
23176;BME280;19910;42.652;23.332;2023-04-03T11:21:53;93842.28;;;10.96;72.09
23176;BME280;19910;42.652;23.332;2023-04-03T11:24:24;93840.34;;;10.81;72.12
23176;BME280;19910;42.652;23.332;2023-04-03T11:26:52;93853.56;;;10.54;73.69
23176;BME280;19910;42.652;23.332;2023-04-03T11:29:24;93835.56;;;10.46;75.60
23176;BME280;19910;42.652;23.332;2023-04-03T11:32:09;93839.91;;;10.35;77.66
23176;BME280;19910;42.652;23.332;2023-04-03T11:34:40;93846.13;;;10.36;79.31
23176;BME280;19910;42.652;23.332;2023-04-03T11:37:15;93840.34;;;10.37;80.79
23176;BME280;19910;42.652;23.332;2023-04-03T11:39:51;93839.59;;;10.52;81.08
23176;BME280;19910;42.652;23.332;2023-04-03T11:42:27;93845.44;;;10.54;82.22
23176;BME280;19910;42.652;23.332;2023-04-03T11:45:22;93845.25;;;10.47;83.17
23176;BME280;19910;42.652;23.332;2023-04-03T11:47:53;93846.00;;;10.32;82.16
23176;BME280;19910;42.652;23.332;2023-04-03T11:50:38;93841.44;;;10.08;83.57
23176;BME280;19910;42.652;23.332;2023-04-03T11:53:28;93849.59;;;9.96;85.43
23176;BME280;19910;42.652;23.332;2023-04-03T11:56:00;93854.00;;;9.88;86.24
23176;BME280;19910;42.652;23.332;2023-04-03T11:58:30;93852.34;;;9.84;87.94
23176;BME280;19910;42.652;23.332;2023-04-03T12:01:06;93853.13;;;9.72;88.70
23176;BME280;19910;42.652;23.332;2023-04-03T12:03:57;93852.78;;;9.74;88.96
23176;BME280;19910;42.652;23.332;2023-04-03T12:10:15;93865.78;;;9.32;93.83
23176;BME280;19910;42.652;23.332;2023-04-03T12:12:55;93863.31;;;9.14;93.69
23176;BME280;19910;42.652;23.332;2023-04-03T12:15:51;93861.84;;;9.17;94.68
23176;BME280;19910;42.652;23.332;2023-04-03T12:18:42;93856.34;;;9.13;95.23
23176;BME280;19910;42.652;23.332;2023-04-03T12:21:09;93847.00;;;9.11;97.23
23176;BME280;19910;42.652;23.332;2023-04-03T12:23:56;93851.81;;;9.05;95.91
23176;BME280;19910;42.652;23.332;2023-04-03T12:26:25;93842.81;;;9.13;98.25
23176;BME280;19910;42.652;23.332;2023-04-03T12:28:54;93839.66;;;9.23;98.78
23176;BME280;19910;42.652;23.332;2023-04-03T12:31:24;93844.16;;;9.19;98.49
23176;BME280;19910;42.652;23.332;2023-04-03T12:34:07;93845.28;;;9.06;99.64
23176;BME280;19910;42.652;23.332;2023-04-03T12:36:45;93830.19;;;8.93;100.00
23176;BME280;19910;42.652;23.332;2023-04-03T12:39:44;93831.31;;;8.92;100.00
23176;BME280;19910;42.652;23.332;2023-04-03T12:42:42;93832.34;;;8.87;100.00
23176;BME280;19910;42.652;23.332;2023-04-03T12:45:17;93827.50;;;8.81;100.00
23176;BME280;19910;42.652;23.332;2023-04-03T12:47:49;93809.81;;;8.71;100.00
23176;BME280;19910;42.652;23.332;2023-04-03T12:50:21;93807.22;;;8.75;100.00
23176;BME280;19910;42.652;23.332;2023-04-03T12:52:54;93809.50;;;8.73;100.00
23176;BME280;19910;42.652;23.332;2023-04-03T12:55:23;93806.78;;;8.73;100.00
23176;BME280;19910;42.652;23.332;2023-04-03T12:57:50;93806.88;;;8.64;100.00
23176;BME280;19910;42.652;23.332;2023-04-03T13:00:25;93802.50;;;8.72;100.00
23176;BME280;19910;42.652;23.332;2023-04-03T13:02:53;93807.78;;;8.68;100.00
23176;BME280;19910;42.652;23.332;2023-04-03T13:05:21;93808.56;;;8.69;100.00
23176;BME280;19910;42.652;23.332;2023-04-03T13:07:57;93814.63;;;8.66;100.00
23176;BME280;19910;42.652;23.332;2023-04-03T13:10:24;93809.00;;;8.59;100.00
23176;BME280;19910;42.652;23.332;2023-04-03T13:12:54;93810.03;;;8.66;100.00
23176;BME280;19910;42.652;23.332;2023-04-03T13:15:23;93802.91;;;8.62;100.00